sensor_id;sensor_type;location;lat;lon;timestamp;temperature;humidity
2639;DHT22;1329;51.384;7.122;2024-01-11T00:02:10;-3.40;14.50
2639;DHT22;1329;51.384;7.122;2024-01-11T00:04:38;-3.40;15.10
2639;DHT22;1329;51.384;7.122;2024-01-11T00:07:07;-3.40;14.80
2639;DHT22;1329;51.384;7.122;2024-01-11T00:09:38;-3.40;14.40
2639;DHT22;1329;51.384;7.122;2024-01-11T00:12:06;-3.40;14.10
2639;DHT22;1329;51.384;7.122;2024-01-11T00:14:34;-3.40;14.10
2639;DHT22;1329;51.384;7.122;2024-01-11T00:17:03;-3.50;14.20
2639;DHT22;1329;51.384;7.122;2024-01-11T00:19:31;-3.50;13.90
2639;DHT22;1329;51.384;7.122;2024-01-11T00:21:58;-3.50;14.00
2639;DHT22;1329;51.384;7.122;2024-01-11T00:24:26;-3.50;13.90
2639;DHT22;1329;51.384;7.122;2024-01-11T00:26:54;-3.50;13.80
2639;DHT22;1329;51.384;7.122;2024-01-11T00:29:21;-3.50;14.60
2639;DHT22;1329;51.384;7.122;2024-01-11T00:31:49;-3.50;13.70
2639;DHT22;1329;51.384;7.122;2024-01-11T00:34:18;-3.50;13.70
2639;DHT22;1329;51.384;7.122;2024-01-11T00:36:45;-3.60;13.60
2639;DHT22;1329;51.384;7.122;2024-01-11T00:39:13;-3.60;13.90
2639;DHT22;1329;51.384;7.122;2024-01-11T00:41:43;-3.60;13.80
2639;DHT22;1329;51.384;7.122;2024-01-11T00:44:10;-3.60;13.50
2639;DHT22;1329;51.384;7.122;2024-01-11T00:46:39;-3.60;13.40
2639;DHT22;1329;51.384;7.122;2024-01-11T00:49:07;-3.60;13.50
2639;DHT22;1329;51.384;7.122;2024-01-11T00:51:36;-3.60;13.30
2639;DHT22;1329;51.384;7.122;2024-01-11T00:54:03;-3.60;13.00
2639;DHT22;1329;51.384;7.122;2024-01-11T00:56:31;-3.60;13.10
2639;DHT22;1329;51.384;7.122;2024-01-11T00:58:59;-3.70;12.80
2639;DHT22;1329;51.384;7.122;2024-01-11T01:01:27;-3.70;12.50
2639;DHT22;1329;51.384;7.122;2024-01-11T01:03:54;-3.70;12.50
2639;DHT22;1329;51.384;7.122;2024-01-11T01:06:22;-3.70;12.70
2639;DHT22;1329;51.384;7.122;2024-01-11T01:08:51;-3.70;12.60
2639;DHT22;1329;51.384;7.122;2024-01-11T01:11:18;-3.70;12.40
2639;DHT22;1329;51.384;7.122;2024-01-11T01:13:46;-3.70;12.60
2639;DHT22;1329;51.384;7.122;2024-01-11T01:16:13;-3.70;12.80
2639;DHT22;1329;51.384;7.122;2024-01-11T01:18:42;-3.70;12.90
2639;DHT22;1329;51.384;7.122;2024-01-11T01:21:10;-3.80;12.70
2639;DHT22;1329;51.384;7.122;2024-01-11T01:23:38;-3.80;12.40
2639;DHT22;1329;51.384;7.122;2024-01-11T01:26:08;-3.80;12.20
2639;DHT22;1329;51.384;7.122;2024-01-11T01:28:35;-3.80;11.80
2639;DHT22;1329;51.384;7.122;2024-01-11T01:31:03;-3.80;12.10
2639;DHT22;1329;51.384;7.122;2024-01-11T01:33:30;-3.80;12.00
2639;DHT22;1329;51.384;7.122;2024-01-11T01:35:58;-3.80;11.90
2639;DHT22;1329;51.384;7.122;2024-01-11T01:38:25;-3.80;11.70
2639;DHT22;1329;51.384;7.122;2024-01-11T01:40:53;-3.90;11.50
2639;DHT22;1329;51.384;7.122;2024-01-11T01:43:22;-3.90;11.40
2639;DHT22;1329;51.384;7.122;2024-01-11T01:45:50;-3.90;11.30
2639;DHT22;1329;51.384;7.122;2024-01-11T01:48:18;-3.90;11.60
2639;DHT22;1329;51.384;7.122;2024-01-11T01:50:47;-3.90;11.70
2639;DHT22;1329;51.384;7.122;2024-01-11T01:53:17;-3.90;11.40
2639;DHT22;1329;51.384;7.122;2024-01-11T01:55:45;-3.90;11.30
2639;DHT22;1329;51.384;7.122;2024-01-11T01:58:15;-3.90;11.30
2639;DHT22;1329;51.384;7.122;2024-01-11T02:00:46;-4.00;11.10
2639;DHT22;1329;51.384;7.122;2024-01-11T02:03:16;-4.00;10.90
2639;DHT22;1329;51.384;7.122;2024-01-11T02:05:44;-4.00;11.30
2639;DHT22;1329;51.384;7.122;2024-01-11T02:08:16;-4.00;11.20
2639;DHT22;1329;51.384;7.122;2024-01-11T02:10:44;-4.00;10.50
2639;DHT22;1329;51.384;7.122;2024-01-11T02:13:12;-4.00;10.90
2639;DHT22;1329;51.384;7.122;2024-01-11T02:15:40;-4.00;11.00
2639;DHT22;1329;51.384;7.122;2024-01-11T02:18:13;-4.00;11.00
2639;DHT22;1329;51.384;7.122;2024-01-11T02:20:40;-4.00;10.40
2639;DHT22;1329;51.384;7.122;2024-01-11T02:23:12;-4.00;10.70
2639;DHT22;1329;51.384;7.122;2024-01-11T02:25:45;-4.10;10.00
2639;DHT22;1329;51.384;7.122;2024-01-11T02:28:14;-4.10;10.40
2639;DHT22;1329;51.384;7.122;2024-01-11T02:30:41;-4.10;10.70
2639;DHT22;1329;51.384;7.122;2024-01-11T02:33:09;-4.10;10.40
2639;DHT22;1329;51.384;7.122;2024-01-11T02:35:41;-4.10;10.30
2639;DHT22;1329;51.384;7.122;2024-01-11T02:38:11;-4.10;10.10
2639;DHT22;1329;51.384;7.122;2024-01-11T02:40:40;-4.10;10.00
2639;DHT22;1329;51.384;7.122;2024-01-11T02:43:10;-4.10;9.50
2639;DHT22;1329;51.384;7.122;2024-01-11T02:45:38;-4.10;9.40
2639;DHT22;1329;51.384;7.122;2024-01-11T02:48:06;-4.20;9.60
2639;DHT22;1329;51.384;7.122;2024-01-11T02:50:34;-4.20;9.20
2639;DHT22;1329;51.384;7.122;2024-01-11T02:53:02;-4.20;9.00
2639;DHT22;1329;51.384;7.122;2024-01-11T02:55:29;-4.20;8.80
2639;DHT22;1329;51.384;7.122;2024-01-11T02:57:57;-4.20;8.70
2639;DHT22;1329;51.384;7.122;2024-01-11T03:00:27;-4.20;8.70
2639;DHT22;1329;51.384;7.122;2024-01-11T03:02:55;-4.30;8.30
2639;DHT22;1329;51.384;7.122;2024-01-11T03:05:25;-4.30;8.50
2639;DHT22;1329;51.384;7.122;2024-01-11T03:07:58;-4.30;8.60
2639;DHT22;1329;51.384;7.122;2024-01-11T03:10:26;-4.30;8.40
2639;DHT22;1329;51.384;7.122;2024-01-11T03:12:53;-4.30;8.60
2639;DHT22;1329;51.384;7.122;2024-01-11T03:15:21;-4.30;8.60
2639;DHT22;1329;51.384;7.122;2024-01-11T03:17:50;-4.30;8.60
2639;DHT22;1329;51.384;7.122;2024-01-11T03:20:18;-4.30;8.40
2639;DHT22;1329;51.384;7.122;2024-01-11T03:22:50;-4.30;8.50
2639;DHT22;1329;51.384;7.122;2024-01-11T03:25:18;-4.30;8.50
2639;DHT22;1329;51.384;7.122;2024-01-11T03:27:48;-4.30;8.20
2639;DHT22;1329;51.384;7.122;2024-01-11T03:30:16;-4.40;8.10
2639;DHT22;1329;51.384;7.122;2024-01-11T03:32:44;-4.40;8.10
2639;DHT22;1329;51.384;7.122;2024-01-11T03:35:14;-4.40;8.10
2639;DHT22;1329;51.384;7.122;2024-01-11T03:37:42;-4.40;7.50
2639;DHT22;1329;51.384;7.122;2024-01-11T03:40:11;-4.40;7.70
2639;DHT22;1329;51.384;7.122;2024-01-11T03:42:42;-4.40;7.20
2639;DHT22;1329;51.384;7.122;2024-01-11T03:45:11;-4.40;6.60
2639;DHT22;1329;51.384;7.122;2024-01-11T03:47:39;-4.40;6.40
2639;DHT22;1329;51.384;7.122;2024-01-11T03:50:09;-4.40;6.40
2639;DHT22;1329;51.384;7.122;2024-01-11T03:52:39;-4.50;6.70
2639;DHT22;1329;51.384;7.122;2024-01-11T03:55:07;-4.50;6.90
2639;DHT22;1329;51.384;7.122;2024-01-11T03:57:35;-4.50;7.00
2639;DHT22;1329;51.384;7.122;2024-01-11T04:00:04;-4.50;7.20
2639;DHT22;1329;51.384;7.122;2024-01-11T04:02:32;-4.50;7.00
2639;DHT22;1329;51.384;7.122;2024-01-11T04:05:00;-4.50;7.00
2639;DHT22;1329;51.384;7.122;2024-01-11T04:07:29;-4.50;7.10
2639;DHT22;1329;51.384;7.122;2024-01-11T04:09:58;-4.50;6.90
2639;DHT22;1329;51.384;7.122;2024-01-11T04:12:26;-4.50;6.70
2639;DHT22;1329;51.384;7.122;2024-01-11T04:14:54;-4.50;6.70
2639;DHT22;1329;51.384;7.122;2024-01-11T04:17:22;-4.60;6.70
2639;DHT22;1329;51.384;7.122;2024-01-11T04:19:49;-4.60;6.60
2639;DHT22;1329;51.384;7.122;2024-01-11T04:22:17;-4.50;7.80
2639;DHT22;1329;51.384;7.122;2024-01-11T04:24:47;-4.60;6.80
2639;DHT22;1329;51.384;7.122;2024-01-11T04:27:14;-4.60;6.70
2639;DHT22;1329;51.384;7.122;2024-01-11T04:29:42;-4.60;6.90
2639;DHT22;1329;51.384;7.122;2024-01-11T04:32:10;-4.60;6.80
2639;DHT22;1329;51.384;7.122;2024-01-11T04:34:38;-4.60;6.50
2639;DHT22;1329;51.384;7.122;2024-01-11T04:37:06;-4.60;6.00
2639;DHT22;1329;51.384;7.122;2024-01-11T04:39:34;-4.60;5.70
2639;DHT22;1329;51.384;7.122;2024-01-11T04:42:03;-4.70;6.90
2639;DHT22;1329;51.384;7.122;2024-01-11T04:44:31;-4.70;5.90
2639;DHT22;1329;51.384;7.122;2024-01-11T04:46:59;-4.60;6.40
2639;DHT22;1329;51.384;7.122;2024-01-11T04:49:26;-4.70;6.40
2639;DHT22;1329;51.384;7.122;2024-01-11T04:51:54;-4.70;6.50
2639;DHT22;1329;51.384;7.122;2024-01-11T04:54:22;-4.70;6.50
2639;DHT22;1329;51.384;7.122;2024-01-11T04:56:49;-4.70;6.40
2639;DHT22;1329;51.384;7.122;2024-01-11T04:59:18;-4.70;6.50
2639;DHT22;1329;51.384;7.122;2024-01-11T05:01:46;-4.70;6.40
2639;DHT22;1329;51.384;7.122;2024-01-11T05:04:14;-4.70;6.70
2639;DHT22;1329;51.384;7.122;2024-01-11T05:06:41;-4.70;6.60
2639;DHT22;1329;51.384;7.122;2024-01-11T05:09:09;-4.70;6.70
2639;DHT22;1329;51.384;7.122;2024-01-11T05:11:37;-4.70;6.30
2639;DHT22;1329;51.384;7.122;2024-01-11T05:14:05;-4.70;6.00
2639;DHT22;1329;51.384;7.122;2024-01-11T05:16:33;-4.70;6.00
2639;DHT22;1329;51.384;7.122;2024-01-11T05:19:01;-4.70;5.90
2639;DHT22;1329;51.384;7.122;2024-01-11T05:21:30;-4.70;5.90
2639;DHT22;1329;51.384;7.122;2024-01-11T05:23:58;-4.70;5.70
2639;DHT22;1329;51.384;7.122;2024-01-11T05:26:26;-4.70;5.80
2639;DHT22;1329;51.384;7.122;2024-01-11T05:28:53;-4.70;5.70
2639;DHT22;1329;51.384;7.122;2024-01-11T05:31:21;-4.80;5.60
2639;DHT22;1329;51.384;7.122;2024-01-11T05:33:50;-4.70;5.70
2639;DHT22;1329;51.384;7.122;2024-01-11T05:36:17;-4.80;5.40
2639;DHT22;1329;51.384;7.122;2024-01-11T05:38:45;-4.70;5.90
2639;DHT22;1329;51.384;7.122;2024-01-11T05:41:13;-4.80;5.80
2639;DHT22;1329;51.384;7.122;2024-01-11T05:43:41;-4.80;5.80
2639;DHT22;1329;51.384;7.122;2024-01-11T05:46:10;-4.80;5.60
2639;DHT22;1329;51.384;7.122;2024-01-11T05:48:38;-4.80;5.60
2639;DHT22;1329;51.384;7.122;2024-01-11T05:51:08;-4.80;5.40
2639;DHT22;1329;51.384;7.122;2024-01-11T05:53:36;-4.80;5.00
2639;DHT22;1329;51.384;7.122;2024-01-11T05:56:07;-4.80;5.20
2639;DHT22;1329;51.384;7.122;2024-01-11T05:58:35;-4.80;4.80
2639;DHT22;1329;51.384;7.122;2024-01-11T06:01:04;-4.90;5.30
2639;DHT22;1329;51.384;7.122;2024-01-11T06:03:32;-4.80;5.20
2639;DHT22;1329;51.384;7.122;2024-01-11T06:06:00;-4.90;5.00
2639;DHT22;1329;51.384;7.122;2024-01-11T06:08:30;-4.90;4.80
2639;DHT22;1329;51.384;7.122;2024-01-11T06:10:59;-4.90;4.40
2639;DHT22;1329;51.384;7.122;2024-01-11T06:13:26;-4.90;4.40
2639;DHT22;1329;51.384;7.122;2024-01-11T06:15:54;-4.90;4.40
2639;DHT22;1329;51.384;7.122;2024-01-11T06:18:22;-4.90;5.60
2639;DHT22;1329;51.384;7.122;2024-01-11T06:20:49;-4.90;5.90
2639;DHT22;1329;51.384;7.122;2024-01-11T06:23:19;-4.90;5.10
2639;DHT22;1329;51.384;7.122;2024-01-11T06:25:48;-5.00;4.90
2639;DHT22;1329;51.384;7.122;2024-01-11T06:28:16;-4.90;5.00
2639;DHT22;1329;51.384;7.122;2024-01-11T06:30:44;-4.90;5.30
2639;DHT22;1329;51.384;7.122;2024-01-11T06:33:13;-5.00;5.20
2639;DHT22;1329;51.384;7.122;2024-01-11T06:35:43;-5.00;5.30
2639;DHT22;1329;51.384;7.122;2024-01-11T06:38:11;-5.00;5.40
2639;DHT22;1329;51.384;7.122;2024-01-11T06:40:38;-5.00;5.60
2639;DHT22;1329;51.384;7.122;2024-01-11T06:43:07;-5.00;5.80
2639;DHT22;1329;51.384;7.122;2024-01-11T06:45:37;-4.90;6.00
2639;DHT22;1329;51.384;7.122;2024-01-11T06:48:13;-4.90;6.20
2639;DHT22;1329;51.384;7.122;2024-01-11T06:50:40;-4.90;5.70
2639;DHT22;1329;51.384;7.122;2024-01-11T06:53:08;-4.90;6.20
2639;DHT22;1329;51.384;7.122;2024-01-11T06:55:36;-4.90;6.10
2639;DHT22;1329;51.384;7.122;2024-01-11T06:58:03;-4.90;6.10
2639;DHT22;1329;51.384;7.122;2024-01-11T07:00:33;-4.90;6.00
2639;DHT22;1329;51.384;7.122;2024-01-11T07:03:01;-4.90;5.80
2639;DHT22;1329;51.384;7.122;2024-01-11T07:05:29;-4.90;6.20
2639;DHT22;1329;51.384;7.122;2024-01-11T07:07:57;-4.90;6.00
2639;DHT22;1329;51.384;7.122;2024-01-11T07:10:27;-4.90;5.80
2639;DHT22;1329;51.384;7.122;2024-01-11T07:12:59;-4.90;5.70
2639;DHT22;1329;51.384;7.122;2024-01-11T07:15:27;-4.90;5.70
2639;DHT22;1329;51.384;7.122;2024-01-11T07:17:59;-4.90;6.00
2639;DHT22;1329;51.384;7.122;2024-01-11T07:20:27;-4.90;6.00
2639;DHT22;1329;51.384;7.122;2024-01-11T07:22:55;-4.90;6.40
2639;DHT22;1329;51.384;7.122;2024-01-11T07:25:26;-4.90;6.70
2639;DHT22;1329;51.384;7.122;2024-01-11T07:27:54;-4.90;6.80
2639;DHT22;1329;51.384;7.122;2024-01-11T07:30:24;-4.90;7.00
2639;DHT22;1329;51.384;7.122;2024-01-11T07:32:52;-4.90;7.20
2639;DHT22;1329;51.384;7.122;2024-01-11T07:35:22;-4.90;7.10
2639;DHT22;1329;51.384;7.122;2024-01-11T07:37:55;-4.90;6.80
2639;DHT22;1329;51.384;7.122;2024-01-11T07:40:23;-4.90;6.40
2639;DHT22;1329;51.384;7.122;2024-01-11T07:42:51;-4.90;7.20
2639;DHT22;1329;51.384;7.122;2024-01-11T07:45:21;-4.90;7.40
2639;DHT22;1329;51.384;7.122;2024-01-11T07:47:50;-4.80;7.60
2639;DHT22;1329;51.384;7.122;2024-01-11T07:50:18;-4.90;7.50
2639;DHT22;1329;51.384;7.122;2024-01-11T07:52:47;-4.80;7.90
2639;DHT22;1329;51.384;7.122;2024-01-11T07:55:15;-4.80;7.70
2639;DHT22;1329;51.384;7.122;2024-01-11T07:57:49;-4.80;8.20
2639;DHT22;1329;51.384;7.122;2024-01-11T08:00:17;-4.80;8.60
2639;DHT22;1329;51.384;7.122;2024-01-11T08:02:45;-4.80;9.10
2639;DHT22;1329;51.384;7.122;2024-01-11T08:05:13;-4.70;9.70
2639;DHT22;1329;51.384;7.122;2024-01-11T08:07:54;-4.70;10.20
2639;DHT22;1329;51.384;7.122;2024-01-11T08:10:23;-4.70;9.10
2639;DHT22;1329;51.384;7.122;2024-01-11T08:12:50;-4.70;10.90
2639;DHT22;1329;51.384;7.122;2024-01-11T08:15:23;-4.60;11.40
2639;DHT22;1329;51.384;7.122;2024-01-11T08:17:56;-4.60;11.30
2639;DHT22;1329;51.384;7.122;2024-01-11T08:20:27;-4.60;11.80
2639;DHT22;1329;51.384;7.122;2024-01-11T08:22:56;-4.60;12.30
2639;DHT22;1329;51.384;7.122;2024-01-11T08:25:24;-4.60;12.30
2639;DHT22;1329;51.384;7.122;2024-01-11T08:27:51;-4.50;13.10
2639;DHT22;1329;51.384;7.122;2024-01-11T08:30:19;-4.50;13.50
2639;DHT22;1329;51.384;7.122;2024-01-11T08:32:47;-4.50;13.90
2639;DHT22;1329;51.384;7.122;2024-01-11T08:35:14;-4.50;14.10
2639;DHT22;1329;51.384;7.122;2024-01-11T08:37:42;-4.40;14.60
2639;DHT22;1329;51.384;7.122;2024-01-11T08:40:11;-4.40;15.00
2639;DHT22;1329;51.384;7.122;2024-01-11T08:42:39;-4.40;15.00
2639;DHT22;1329;51.384;7.122;2024-01-11T08:45:08;-4.40;16.00
2639;DHT22;1329;51.384;7.122;2024-01-11T08:47:36;-4.30;16.30
2639;DHT22;1329;51.384;7.122;2024-01-11T08:50:05;-4.30;16.80
2639;DHT22;1329;51.384;7.122;2024-01-11T08:52:33;-4.30;16.90
2639;DHT22;1329;51.384;7.122;2024-01-11T08:55:01;-4.30;17.30
2639;DHT22;1329;51.384;7.122;2024-01-11T08:57:32;-4.20;18.10
2639;DHT22;1329;51.384;7.122;2024-01-11T09:00:03;-4.20;18.20
2639;DHT22;1329;51.384;7.122;2024-01-11T09:02:32;-4.10;18.90
2639;DHT22;1329;51.384;7.122;2024-01-11T09:05:01;-4.10;19.70
2639;DHT22;1329;51.384;7.122;2024-01-11T09:07:30;-4.10;20.70
2639;DHT22;1329;51.384;7.122;2024-01-11T09:09:58;-4.10;23.00
2639;DHT22;1329;51.384;7.122;2024-01-11T09:12:26;-4.00;25.20
2639;DHT22;1329;51.384;7.122;2024-01-11T09:14:55;-4.00;27.50
2639;DHT22;1329;51.384;7.122;2024-01-11T09:17:24;-3.90;29.10
2639;DHT22;1329;51.384;7.122;2024-01-11T09:19:52;-3.80;31.60
2639;DHT22;1329;51.384;7.122;2024-01-11T09:22:19;-3.80;33.30
2639;DHT22;1329;51.384;7.122;2024-01-11T09:24:47;-3.70;35.30
2639;DHT22;1329;51.384;7.122;2024-01-11T09:27:15;-3.70;36.90
2639;DHT22;1329;51.384;7.122;2024-01-11T09:29:43;-3.60;39.00
2639;DHT22;1329;51.384;7.122;2024-01-11T09:32:12;-3.60;40.50
2639;DHT22;1329;51.384;7.122;2024-01-11T09:34:40;-3.50;41.50
2639;DHT22;1329;51.384;7.122;2024-01-11T09:37:11;-3.50;43.40
2639;DHT22;1329;51.384;7.122;2024-01-11T09:39:42;-3.40;44.30
2639;DHT22;1329;51.384;7.122;2024-01-11T09:42:09;-3.40;45.20
2639;DHT22;1329;51.384;7.122;2024-01-11T09:44:39;-3.30;46.90
2639;DHT22;1329;51.384;7.122;2024-01-11T09:47:09;-3.30;47.90
2639;DHT22;1329;51.384;7.122;2024-01-11T09:49:41;-3.20;48.90
2639;DHT22;1329;51.384;7.122;2024-01-11T09:52:15;-3.20;49.70
2639;DHT22;1329;51.384;7.122;2024-01-11T09:54:44;-3.20;51.40
2639;DHT22;1329;51.384;7.122;2024-01-11T09:57:18;-3.10;52.50
2639;DHT22;1329;51.384;7.122;2024-01-11T09:59:50;-3.10;52.20
2639;DHT22;1329;51.384;7.122;2024-01-11T10:02:23;-3.00;54.00
2639;DHT22;1329;51.384;7.122;2024-01-11T10:04:54;-3.00;54.10
2639;DHT22;1329;51.384;7.122;2024-01-11T10:07:23;-2.90;56.40
2639;DHT22;1329;51.384;7.122;2024-01-11T10:09:52;-2.90;55.50
2639;DHT22;1329;51.384;7.122;2024-01-11T10:12:20;-2.80;56.80
2639;DHT22;1329;51.384;7.122;2024-01-11T10:14:50;-2.80;58.20
2639;DHT22;1329;51.384;7.122;2024-01-11T10:17:18;-2.80;59.30
2639;DHT22;1329;51.384;7.122;2024-01-11T10:19:46;-2.70;60.20
2639;DHT22;1329;51.384;7.122;2024-01-11T10:22:15;-2.70;61.50
2639;DHT22;1329;51.384;7.122;2024-01-11T10:24:44;-2.60;62.40
2639;DHT22;1329;51.384;7.122;2024-01-11T10:27:15;-2.60;64.50
2639;DHT22;1329;51.384;7.122;2024-01-11T10:29:42;-2.50;66.00
2639;DHT22;1329;51.384;7.122;2024-01-11T10:32:11;-2.50;67.60
2639;DHT22;1329;51.384;7.122;2024-01-11T10:34:39;-2.40;68.70
2639;DHT22;1329;51.384;7.122;2024-01-11T10:37:15;-2.40;69.80
2639;DHT22;1329;51.384;7.122;2024-01-11T10:39:47;-2.30;70.10
2639;DHT22;1329;51.384;7.122;2024-01-11T10:42:20;-2.30;71.40
2639;DHT22;1329;51.384;7.122;2024-01-11T10:44:55;-2.20;71.90
2639;DHT22;1329;51.384;7.122;2024-01-11T10:47:24;-2.20;73.30
2639;DHT22;1329;51.384;7.122;2024-01-11T10:49:57;-2.10;74.60
2639;DHT22;1329;51.384;7.122;2024-01-11T10:52:31;-2.10;73.90
2639;DHT22;1329;51.384;7.122;2024-01-11T10:55:02;-2.00;75.00
2639;DHT22;1329;51.384;7.122;2024-01-11T10:57:32;-2.00;78.60
2639;DHT22;1329;51.384;7.122;2024-01-11T11:00:01;-1.90;79.80
2639;DHT22;1329;51.384;7.122;2024-01-11T11:02:33;-1.90;80.30
2639;DHT22;1329;51.384;7.122;2024-01-11T11:05:02;-1.80;81.10
2639;DHT22;1329;51.384;7.122;2024-01-11T11:07:33;-1.80;79.80
2639;DHT22;1329;51.384;7.122;2024-01-11T11:10:11;-1.70;79.70
2639;DHT22;1329;51.384;7.122;2024-01-11T11:12:45;-1.70;81.30
2639;DHT22;1329;51.384;7.122;2024-01-11T11:15:13;-1.60;80.20
2639;DHT22;1329;51.384;7.122;2024-01-11T11:17:43;-1.50;80.70
2639;DHT22;1329;51.384;7.122;2024-01-11T11:20:12;-1.50;81.20
2639;DHT22;1329;51.384;7.122;2024-01-11T11:23:05;-1.40;80.10
2639;DHT22;1329;51.384;7.122;2024-01-11T11:25:35;-1.40;73.40
2639;DHT22;1329;51.384;7.122;2024-01-11T11:28:03;-1.30;80.00
2639;DHT22;1329;51.384;7.122;2024-01-11T11:30:32;-1.30;80.60
2639;DHT22;1329;51.384;7.122;2024-01-11T11:33:08;-1.20;80.00
2639;DHT22;1329;51.384;7.122;2024-01-11T11:35:37;-1.20;77.10
2639;DHT22;1329;51.384;7.122;2024-01-11T11:38:07;-1.10;79.90
2639;DHT22;1329;51.384;7.122;2024-01-11T11:40:46;-1.10;78.70
2639;DHT22;1329;51.384;7.122;2024-01-11T11:43:16;-1.00;77.10
2639;DHT22;1329;51.384;7.122;2024-01-11T11:45:47;-1.00;75.50
2639;DHT22;1329;51.384;7.122;2024-01-11T11:48:51;-1.00;74.60
2639;DHT22;1329;51.384;7.122;2024-01-11T11:51:21;-0.90;67.70
2639;DHT22;1329;51.384;7.122;2024-01-11T11:53:58;-0.80;74.90
2639;DHT22;1329;51.384;7.122;2024-01-11T11:56:34;-0.70;74.30
2639;DHT22;1329;51.384;7.122;2024-01-11T11:59:11;-0.70;73.60
2639;DHT22;1329;51.384;7.122;2024-01-11T12:01:42;-0.70;73.20
2639;DHT22;1329;51.384;7.122;2024-01-11T12:04:14;-0.70;76.80
2639;DHT22;1329;51.384;7.122;2024-01-11T12:06:42;-0.60;77.30
2639;DHT22;1329;51.384;7.122;2024-01-11T12:09:18;-0.60;77.60
2639;DHT22;1329;51.384;7.122;2024-01-11T12:11:49;-0.50;74.30
2639;DHT22;1329;51.384;7.122;2024-01-11T12:14:17;-0.50;77.20
2639;DHT22;1329;51.384;7.122;2024-01-11T12:16:45;-0.50;77.00
2639;DHT22;1329;51.384;7.122;2024-01-11T12:19:24;-0.50;76.90
2639;DHT22;1329;51.384;7.122;2024-01-11T12:21:53;-0.40;74.20
2639;DHT22;1329;51.384;7.122;2024-01-11T12:24:22;-0.40;73.50
2639;DHT22;1329;51.384;7.122;2024-01-11T12:26:50;-0.30;75.10
2639;DHT22;1329;51.384;7.122;2024-01-11T12:29:19;-0.20;77.10
2639;DHT22;1329;51.384;7.122;2024-01-11T12:31:47;-0.10;77.20
2639;DHT22;1329;51.384;7.122;2024-01-11T12:34:21;-0.10;77.30
2639;DHT22;1329;51.384;7.122;2024-01-11T12:36:52;0.00;70.80
2639;DHT22;1329;51.384;7.122;2024-01-11T12:39:25;0.10;77.50
2639;DHT22;1329;51.384;7.122;2024-01-11T12:41:54;0.10;75.10
2639;DHT22;1329;51.384;7.122;2024-01-11T12:44:24;0.20;76.00
2639;DHT22;1329;51.384;7.122;2024-01-11T12:46:55;0.30;76.10
2639;DHT22;1329;51.384;7.122;2024-01-11T12:49:22;0.30;76.40
2639;DHT22;1329;51.384;7.122;2024-01-11T12:51:50;0.30;75.30
2639;DHT22;1329;51.384;7.122;2024-01-11T12:54:18;0.40;75.70
2639;DHT22;1329;51.384;7.122;2024-01-11T12:56:48;0.40;75.00
2639;DHT22;1329;51.384;7.122;2024-01-11T12:59:16;0.50;72.80
2639;DHT22;1329;51.384;7.122;2024-01-11T13:01:46;0.50;69.20
2639;DHT22;1329;51.384;7.122;2024-01-11T13:04:19;0.50;72.50
2639;DHT22;1329;51.384;7.122;2024-01-11T13:06:49;0.60;72.50
2639;DHT22;1329;51.384;7.122;2024-01-11T13:09:17;0.60;75.10
2639;DHT22;1329;51.384;7.122;2024-01-11T13:11:44;0.60;76.10
2639;DHT22;1329;51.384;7.122;2024-01-11T13:14:14;0.70;74.90
2639;DHT22;1329;51.384;7.122;2024-01-11T13:16:45;0.70;72.40
2639;DHT22;1329;51.384;7.122;2024-01-11T13:19:12;0.70;67.90
2639;DHT22;1329;51.384;7.122;2024-01-11T13:21:41;0.70;69.40
2639;DHT22;1329;51.384;7.122;2024-01-11T13:24:09;0.80;72.70
2639;DHT22;1329;51.384;7.122;2024-01-11T13:26:38;0.80;73.90
2639;DHT22;1329;51.384;7.122;2024-01-11T13:29:08;0.90;71.90
2639;DHT22;1329;51.384;7.122;2024-01-11T13:31:37;0.80;68.30
2639;DHT22;1329;51.384;7.122;2024-01-11T13:34:05;0.90;70.70
2639;DHT22;1329;51.384;7.122;2024-01-11T13:36:32;0.90;71.60
2639;DHT22;1329;51.384;7.122;2024-01-11T13:39:00;0.90;72.20
2639;DHT22;1329;51.384;7.122;2024-01-11T13:41:28;0.90;71.70
2639;DHT22;1329;51.384;7.122;2024-01-11T13:44:00;0.90;72.20
2639;DHT22;1329;51.384;7.122;2024-01-11T13:46:30;0.90;67.20
2639;DHT22;1329;51.384;7.122;2024-01-11T13:48:58;0.90;62.90
2639;DHT22;1329;51.384;7.122;2024-01-11T13:51:26;1.00;68.60
2639;DHT22;1329;51.384;7.122;2024-01-11T13:53:53;1.00;66.80
2639;DHT22;1329;51.384;7.122;2024-01-11T13:56:21;1.00;68.50
2639;DHT22;1329;51.384;7.122;2024-01-11T13:58:54;1.00;69.00
2639;DHT22;1329;51.384;7.122;2024-01-11T14:01:24;1.10;65.90
2639;DHT22;1329;51.384;7.122;2024-01-11T14:03:53;1.10;69.10
2639;DHT22;1329;51.384;7.122;2024-01-11T14:06:30;1.10;68.10
2639;DHT22;1329;51.384;7.122;2024-01-11T14:09:00;1.10;68.30
2639;DHT22;1329;51.384;7.122;2024-01-11T14:11:33;1.10;66.00
2639;DHT22;1329;51.384;7.122;2024-01-11T14:14:01;1.10;62.90
2639;DHT22;1329;51.384;7.122;2024-01-11T14:16:31;1.10;66.20
2639;DHT22;1329;51.384;7.122;2024-01-11T14:19:00;1.20;67.60
2639;DHT22;1329;51.384;7.122;2024-01-11T14:21:28;1.20;64.60
2639;DHT22;1329;51.384;7.122;2024-01-11T14:23:56;1.20;64.80
2639;DHT22;1329;51.384;7.122;2024-01-11T14:26:24;1.20;64.30
2639;DHT22;1329;51.384;7.122;2024-01-11T14:28:51;1.20;64.20
2639;DHT22;1329;51.384;7.122;2024-01-11T14:31:25;1.20;65.20
2639;DHT22;1329;51.384;7.122;2024-01-11T14:33:56;1.20;58.80
2639;DHT22;1329;51.384;7.122;2024-01-11T14:36:25;1.20;66.80
2639;DHT22;1329;51.384;7.122;2024-01-11T14:38:53;1.20;63.80
2639;DHT22;1329;51.384;7.122;2024-01-11T14:41:20;1.20;67.00
2639;DHT22;1329;51.384;7.122;2024-01-11T14:43:48;1.20;65.20
2639;DHT22;1329;51.384;7.122;2024-01-11T14:46:17;1.20;60.60
2639;DHT22;1329;51.384;7.122;2024-01-11T14:48:45;1.20;95.80
2639;DHT22;1329;51.384;7.122;2024-01-11T14:51:17;1.20;79.80
2639;DHT22;1329;51.384;7.122;2024-01-11T14:53:46;1.20;75.80
2639;DHT22;1329;51.384;7.122;2024-01-11T14:56:14;1.20;72.60
2639;DHT22;1329;51.384;7.122;2024-01-11T14:58:42;1.20;73.60
2639;DHT22;1329;51.384;7.122;2024-01-11T15:01:10;1.20;72.20
2639;DHT22;1329;51.384;7.122;2024-01-11T15:03:37;1.20;70.00
2639;DHT22;1329;51.384;7.122;2024-01-11T15:06:06;1.20;70.60
2639;DHT22;1329;51.384;7.122;2024-01-11T15:08:35;1.20;70.50
2639;DHT22;1329;51.384;7.122;2024-01-11T15:11:04;1.20;69.80
2639;DHT22;1329;51.384;7.122;2024-01-11T15:13:32;1.20;67.60
2639;DHT22;1329;51.384;7.122;2024-01-11T15:16:01;1.20;70.60
2639;DHT22;1329;51.384;7.122;2024-01-11T15:18:28;1.20;69.50
2639;DHT22;1329;51.384;7.122;2024-01-11T15:20:57;1.20;71.40
2639;DHT22;1329;51.384;7.122;2024-01-11T15:23:25;1.10;72.50
2639;DHT22;1329;51.384;7.122;2024-01-11T15:25:53;1.10;72.90
2639;DHT22;1329;51.384;7.122;2024-01-11T15:28:23;1.10;71.50
2639;DHT22;1329;51.384;7.122;2024-01-11T15:30:51;1.10;68.00
2639;DHT22;1329;51.384;7.122;2024-01-11T15:33:21;1.10;70.00
2639;DHT22;1329;51.384;7.122;2024-01-11T15:35:51;1.10;65.60
2639;DHT22;1329;51.384;7.122;2024-01-11T15:38:18;1.10;67.70
2639;DHT22;1329;51.384;7.122;2024-01-11T15:40:46;1.10;66.90
2639;DHT22;1329;51.384;7.122;2024-01-11T15:43:14;1.10;68.20
2639;DHT22;1329;51.384;7.122;2024-01-11T15:45:43;1.10;68.50
2639;DHT22;1329;51.384;7.122;2024-01-11T15:48:11;1.00;65.30
2639;DHT22;1329;51.384;7.122;2024-01-11T15:50:39;1.00;66.20
2639;DHT22;1329;51.384;7.122;2024-01-11T15:53:07;1.00;65.80
2639;DHT22;1329;51.384;7.122;2024-01-11T15:55:34;1.00;65.30
2639;DHT22;1329;51.384;7.122;2024-01-11T15:58:09;0.90;64.10
2639;DHT22;1329;51.384;7.122;2024-01-11T16:00:45;0.90;60.00
2639;DHT22;1329;51.384;7.122;2024-01-11T16:03:13;0.80;61.10
2639;DHT22;1329;51.384;7.122;2024-01-11T16:05:41;0.80;61.80
2639;DHT22;1329;51.384;7.122;2024-01-11T16:08:13;0.70;59.30
2639;DHT22;1329;51.384;7.122;2024-01-11T16:10:41;0.60;81.70
2639;DHT22;1329;51.384;7.122;2024-01-11T16:13:10;0.60;69.30
2639;DHT22;1329;51.384;7.122;2024-01-11T16:15:38;0.60;66.70
2639;DHT22;1329;51.384;7.122;2024-01-11T16:18:07;0.50;65.60
2639;DHT22;1329;51.384;7.122;2024-01-11T16:20:40;0.50;63.60
2639;DHT22;1329;51.384;7.122;2024-01-11T16:23:10;0.40;63.40